Aeroporto :
LOGIN :

Iscrizione | Disclaimer

   EN    FR    IT 

 










Sommario :    VFR   VFR Marginale   IFR   IFR Intensivo   IFR Molto Intensivo
Visibilità : 
Base nubi : 
>= 8 km
>= 3000ft
5 / 8 km
1000 / 3000 ft
1500m / 5 km
500 / 1000 ft
800 / 1500m
200 / 500 ft
< 800m
< 200 ft
Simboli :   Temporali  Nebbia  Neve Forte  Precipitazioni Forti  Vento > 20 kt
SIGMETs :   Varie  Temporali  Ghiacco  Turbolenza  Onda orograficha  Ceneri Vulcaniche






- Altitudine del aeroporto : 157 ft
- Codice IATA : SXF


EDDB - Berlin Schönefeld

ULTIMO METAR :
  • 211320Z 18004KT 150V210 CAVOK 16/13 Q1019 NOSIG

METARs OBSOLETI :
  • 211250Z VRB02KT CAVOK 16/13 Q1018 NOSIG
  • 211220Z VRB02KT CAVOK 16/13 Q1018 NOSIG
  • 211150Z VRB02KT CAVOK 16/13 Q1018 NOSIG
  • 211120Z 28003KT 220V310 CAVOK 16/12 Q1018 NOSIG
  • 211050Z VRB02KT CAVOK 15/13 Q1018 NOSIG

TAF TAF EDDB
Valido dal 21 a 12 ore il 22 a 12 ore UTC


211100Z 2112/2212 23004KT CAVOK
TEMPO 2203/2208 2000 BCFG



MetMap, La meteo Aeronautica in un colpo d'occhio ! - Copyright ORBIFLY Dicembre 2007 - Disclaimer

ORBIFLY MET'MAP TEAM :

Programmazione e sviluppo : Alexandra Zaïnal
Concezione e sviluppo : Baudouin d'Aumeries
Co-Programmazione e sviluppo : Marc-Olivier Méhu
Supporto tecnico e logistico : Manuel Goepfert
Aiuto per la traduzione : Arnaldo La Scala

Contatto : metmap@orbifly.com




FONTI E CREDITI :

   NOAA